createdAt,value
2018-07-16T00:00:15.838Z,1002.37
2018-07-16T00:01:15.817Z,1002.40
2018-07-16T00:02:15.799Z,1002.38
2018-07-16T00:03:15.765Z,1002.37
2018-07-16T00:04:15.754Z,1002.37
2018-07-16T00:05:15.718Z,1002.40
2018-07-16T00:06:15.704Z,1002.39
2018-07-16T00:07:15.676Z,1002.40
2018-07-16T00:08:15.646Z,1002.37
2018-07-16T00:09:15.631Z,1002.39
2018-07-16T00:10:15.597Z,1002.38
2018-07-16T00:11:15.575Z,1002.42
2018-07-16T00:12:15.555Z,1002.38
2018-07-16T00:13:15.525Z,1002.38
2018-07-16T00:14:15.503Z,1002.39
2018-07-16T00:15:15.477Z,1002.36
2018-07-16T00:16:15.456Z,1002.38
2018-07-16T00:17:15.436Z,1002.33
2018-07-16T00:18:15.410Z,1002.34
2018-07-16T00:19:15.407Z,1002.33
2018-07-16T00:20:15.367Z,1002.33
2018-07-16T00:21:15.341Z,1002.35
2018-07-16T00:22:15.307Z,1002.32
2018-07-16T00:23:15.300Z,1002.29
2018-07-16T00:24:15.259Z,1002.29
2018-07-16T00:25:15.236Z,1002.27
2018-07-16T00:26:15.219Z,1002.26
2018-07-16T00:27:15.185Z,1002.25
2018-07-16T00:28:15.168Z,1002.25
2018-07-16T00:29:15.142Z,1002.26
2018-07-16T00:30:15.121Z,1002.27
2018-07-16T00:31:15.091Z,1002.22
2018-07-16T00:32:15.064Z,1002.18
2018-07-16T00:33:15.042Z,1002.16
2018-07-16T00:34:15.019Z,1002.17
2018-07-16T00:35:14.997Z,1002.20
2018-07-16T00:36:14.975Z,1002.14
2018-07-16T00:37:14.943Z,1002.16
2018-07-16T00:38:14.926Z,1002.12
2018-07-16T00:39:14.899Z,1002.12
2018-07-16T00:40:14.870Z,1002.12
2018-07-16T00:41:14.855Z,1002.05
2018-07-16T00:42:14.820Z,1002.07
2018-07-16T00:43:14.797Z,1002.06
2018-07-16T00:44:14.803Z,1002.07
2018-07-16T00:45:14.754Z,1002.06
2018-07-16T00:46:14.725Z,1002.07
2018-07-16T00:47:14.705Z,1002.05
2018-07-16T00:48:14.685Z,1002.01
2018-07-16T00:49:14.661Z,1002.02
2018-07-16T00:50:14.631Z,1002.03
2018-07-16T00:51:14.611Z,1002.03
2018-07-16T00:52:14.578Z,1002.02
2018-07-16T00:53:14.563Z,1002.00
2018-07-16T00:54:14.528Z,1002.00
2018-07-16T00:55:14.506Z,1002.01
2018-07-16T00:56:14.484Z,1002.01
2018-07-16T00:57:14.457Z,1001.97
2018-07-16T00:58:14.448Z,1001.93
2018-07-16T00:59:14.410Z,1001.90
2018-07-16T01:00:14.385Z,1001.91
2018-07-16T01:01:14.380Z,1001.89
2018-07-16T01:02:14.338Z,1001.87
2018-07-16T01:03:14.309Z,1001.85
2018-07-16T01:04:14.284Z,1001.86
2018-07-16T01:05:14.260Z,1001.88
2018-07-16T01:06:14.243Z,1001.85
2018-07-16T01:07:14.211Z,1001.86
2018-07-16T01:08:14.199Z,1001.82
2018-07-16T01:09:14.174Z,1001.76
2018-07-16T01:10:14.161Z,1001.79
2018-07-16T01:11:14.118Z,1001.82
2018-07-16T01:12:14.091Z,1001.81
2018-07-16T01:13:14.066Z,1001.85
2018-07-16T01:14:14.044Z,1001.82
2018-07-16T01:15:14.019Z,1001.82
2018-07-16T01:16:13.995Z,1001.82
2018-07-16T01:17:13.973Z,1001.80
2018-07-16T01:18:13.942Z,1001.81
2018-07-16T01:19:13.916Z,1001.77
2018-07-16T01:20:13.894Z,1001.80
2018-07-16T01:21:13.875Z,1001.75
2018-07-16T01:22:13.848Z,1001.76
2018-07-16T01:23:13.818Z,1001.76
2018-07-16T01:24:13.800Z,1001.75
2018-07-16T01:25:13.776Z,1001.76
2018-07-16T01:26:13.749Z,1001.77
2018-07-16T01:27:13.721Z,1001.76
2018-07-16T01:28:13.701Z,1001.76
2018-07-16T01:29:13.679Z,1001.78
2018-07-16T01:30:13.649Z,1001.76
2018-07-16T01:31:13.651Z,1001.77
2018-07-16T01:32:13.600Z,1001.76
2018-07-16T01:33:13.575Z,1001.76
2018-07-16T01:34:13.561Z,1001.74
2018-07-16T01:35:13.530Z,1001.74
2018-07-16T01:36:13.497Z,1001.70
2018-07-16T01:37:13.475Z,1001.69
2018-07-16T01:38:13.453Z,1001.70
2018-07-16T01:39:13.427Z,1001.72
2018-07-16T01:40:13.418Z,1001.70
2018-07-16T01:41:13.375Z,1001.69
2018-07-16T01:42:13.361Z,1001.69
2018-07-16T01:43:13.331Z,1001.67
2018-07-16T01:44:13.308Z,1001.68
2018-07-16T01:45:13.286Z,1001.67
2018-07-16T01:46:13.262Z,1001.69
2018-07-16T01:47:13.236Z,1001.68
2018-07-16T01:48:13.209Z,1001.69
2018-07-16T01:49:13.189Z,1001.65
2018-07-16T01:50:13.158Z,1001.64
2018-07-16T01:51:13.151Z,1001.63
2018-07-16T01:52:13.113Z,1001.67
2018-07-16T01:53:13.089Z,1001.60
2018-07-16T01:54:13.060Z,1001.61
2018-07-16T01:55:13.038Z,1001.56
2018-07-16T01:56:13.008Z,1001.57
2018-07-16T01:57:12.985Z,1001.59
2018-07-16T01:58:12.966Z,1001.50
2018-07-16T01:59:12.941Z,1001.49
2018-07-16T02:00:12.908Z,1001.51
2018-07-16T02:01:12.887Z,1001.48
2018-07-16T02:02:12.860Z,1001.51
2018-07-16T02:03:12.832Z,1001.50
2018-07-16T02:04:12.821Z,1001.52
2018-07-16T02:05:12.799Z,1001.51
2018-07-16T02:06:12.769Z,1001.46
2018-07-16T02:07:12.743Z,1001.44
2018-07-16T02:08:12.712Z,1001.49
2018-07-16T02:09:12.691Z,1001.51
2018-07-16T02:10:12.668Z,1001.51
2018-07-16T02:11:12.651Z,1001.52
2018-07-16T02:12:12.615Z,1001.48
2018-07-16T02:13:12.587Z,1001.47
2018-07-16T02:14:12.569Z,1001.48
2018-07-16T02:15:12.536Z,1001.49
2018-07-16T02:16:12.522Z,1001.46
2018-07-16T02:17:12.507Z,1001.48
2018-07-16T02:18:12.461Z,1001.47
2018-07-16T02:19:12.447Z,1001.47
2018-07-16T02:20:12.411Z,1001.44
2018-07-16T02:21:12.391Z,1001.45
2018-07-16T02:22:12.364Z,1001.45
2018-07-16T02:23:12.350Z,1001.42
2018-07-16T02:24:12.316Z,1001.40
2018-07-16T02:25:12.297Z,1001.40
2018-07-16T02:26:12.267Z,1001.41
2018-07-16T02:27:12.239Z,1001.41
2018-07-16T02:28:12.218Z,1001.41
2018-07-16T02:29:12.200Z,1001.39
2018-07-16T02:30:12.166Z,1001.41
2018-07-16T02:31:12.150Z,1001.38
2018-07-16T02:32:12.115Z,1001.39
2018-07-16T02:33:12.090Z,1001.38
2018-07-16T02:34:12.074Z,1001.37
2018-07-16T02:35:12.042Z,1001.41
2018-07-16T02:36:12.025Z,1001.42
2018-07-16T02:37:11.992Z,1001.41
2018-07-16T02:38:11.972Z,1001.41
2018-07-16T02:39:11.948Z,1001.38
2018-07-16T02:40:11.915Z,1001.42
2018-07-16T02:41:11.897Z,1001.42
2018-07-16T02:42:11.868Z,1001.41
2018-07-16T02:43:11.843Z,1001.40
2018-07-16T02:44:11.824Z,1001.42
2018-07-16T02:45:11.791Z,1001.41
2018-07-16T02:46:11.779Z,1001.39
2018-07-16T02:47:11.746Z,1001.42
2018-07-16T02:48:11.737Z,1001.44
2018-07-16T02:49:11.704Z,1001.42
2018-07-16T02:50:11.666Z,1001.37
2018-07-16T02:51:11.672Z,1001.43
2018-07-16T02:52:11.623Z,1001.42
2018-07-16T02:53:11.601Z,1001.42
2018-07-16T02:54:11.592Z,1001.45
2018-07-16T02:55:11.540Z,1001.47
2018-07-16T02:56:11.535Z,1001.46
2018-07-16T02:57:11.502Z,1001.48
2018-07-16T02:58:11.473Z,1001.47
2018-07-16T02:59:11.451Z,1001.46
2018-07-16T03:00:11.477Z,1001.45
2018-07-16T03:01:11.447Z,1001.44
2018-07-16T03:02:11.369Z,1001.49
2018-07-16T03:03:11.347Z,1001.48
2018-07-16T03:04:11.324Z,1001.45
2018-07-16T03:05:11.292Z,1001.45
2018-07-16T03:06:11.280Z,1001.43
2018-07-16T03:07:11.252Z,1001.40
2018-07-16T03:08:11.222Z,1001.40
2018-07-16T03:09:11.205Z,1001.42
2018-07-16T03:10:11.172Z,1001.47
2018-07-16T03:11:11.152Z,1001.45
2018-07-16T03:12:11.123Z,1001.48
2018-07-16T03:13:11.095Z,1001.49
2018-07-16T03:14:11.077Z,1001.45
2018-07-16T03:15:11.046Z,1001.53
2018-07-16T03:16:11.026Z,1001.48
2018-07-16T03:17:10.995Z,1001.48
2018-07-16T03:18:11.066Z,1001.47
2018-07-16T03:19:10.943Z,1001.46
2018-07-16T03:20:10.927Z,1001.43
2018-07-16T03:21:10.902Z,1001.42
2018-07-16T03:22:10.869Z,1001.46
2018-07-16T03:23:10.853Z,1001.42
2018-07-16T03:24:10.818Z,1001.44
2018-07-16T03:25:10.821Z,1001.43
2018-07-16T03:26:10.770Z,1001.38
2018-07-16T03:27:10.743Z,1001.35
2018-07-16T03:28:10.721Z,1001.40
2018-07-16T03:29:10.705Z,1001.37
2018-07-16T03:30:10.675Z,1001.37
2018-07-16T03:31:10.653Z,1001.40
2018-07-16T03:32:10.619Z,1001.35
2018-07-16T03:33:10.594Z,1001.39
2018-07-16T03:34:10.590Z,1001.39
2018-07-16T03:35:10.544Z,1001.39
2018-07-16T03:36:10.522Z,1001.41
2018-07-16T03:37:10.499Z,1001.41
2018-07-16T03:38:10.470Z,1001.41
2018-07-16T03:39:10.451Z,1001.40
2018-07-16T03:40:10.439Z,1001.41
2018-07-16T03:41:10.396Z,1001.43
2018-07-16T03:42:10.373Z,1001.41
2018-07-16T03:43:10.355Z,1001.41
2018-07-16T03:44:10.317Z,1001.40
2018-07-16T03:45:10.299Z,1001.44
2018-07-16T03:46:10.268Z,1001.41
2018-07-16T03:47:10.245Z,1001.44
2018-07-16T03:48:10.250Z,1001.38
2018-07-16T03:49:10.197Z,1001.41
2018-07-16T03:50:10.169Z,1001.45
2018-07-16T03:51:10.145Z,1001.44
2018-07-16T03:52:10.117Z,1001.47
2018-07-16T03:53:10.096Z,1001.43
2018-07-16T03:54:10.069Z,1001.48
2018-07-16T03:55:10.043Z,1001.46
2018-07-16T03:56:10.022Z,1001.45
2018-07-16T03:57:09.995Z,1001.45
2018-07-16T03:58:09.966Z,1001.42
2018-07-16T03:59:09.942Z,1001.44
2018-07-16T04:00:09.923Z,1001.42
2018-07-16T04:01:09.896Z,1001.41
2018-07-16T04:02:09.869Z,1001.44
2018-07-16T04:03:09.847Z,1001.43
2018-07-16T04:04:09.816Z,1001.43
2018-07-16T04:05:09.792Z,1001.44
2018-07-16T04:06:09.770Z,1001.47
2018-07-16T04:07:09.747Z,1001.45
2018-07-16T04:08:09.719Z,1001.48
2018-07-16T04:09:09.695Z,1001.47
2018-07-16T04:10:09.664Z,1001.43
2018-07-16T04:11:09.639Z,1001.45
2018-07-16T04:12:09.621Z,1001.44
2018-07-16T04:13:09.591Z,1001.41
2018-07-16T04:14:09.582Z,1001.43
2018-07-16T04:15:09.546Z,1001.45
2018-07-16T04:16:09.517Z,1001.46
2018-07-16T04:17:09.499Z,1001.44
2018-07-16T04:18:09.463Z,1001.44
2018-07-16T04:19:09.441Z,1001.48
2018-07-16T04:20:09.416Z,1001.45
2018-07-16T04:21:09.396Z,1001.48
2018-07-16T04:22:09.370Z,1001.47
2018-07-16T04:23:09.339Z,1001.48
2018-07-16T04:24:09.317Z,1001.45
2018-07-16T04:25:09.287Z,1001.48
2018-07-16T04:26:09.269Z,1001.44
2018-07-16T04:27:09.240Z,1001.42
2018-07-16T04:28:09.219Z,1001.50
2018-07-16T04:29:09.187Z,1001.45
2018-07-16T04:30:09.175Z,1001.42
2018-07-16T04:31:09.148Z,1001.41
2018-07-16T04:32:09.119Z,1001.42
2018-07-16T04:33:09.091Z,1001.37
2018-07-16T04:34:09.069Z,1001.41
2018-07-16T04:35:09.038Z,1001.41
2018-07-16T04:36:09.020Z,1001.38
2018-07-16T04:37:08.984Z,1001.39
2018-07-16T04:38:08.962Z,1001.37
2018-07-16T04:39:08.980Z,1001.40
2018-07-16T04:40:08.910Z,1001.39
2018-07-16T04:41:08.897Z,1001.37
2018-07-16T04:42:08.860Z,1001.38
2018-07-16T04:43:08.835Z,1001.35
2018-07-16T04:44:08.809Z,1001.40
2018-07-16T04:45:08.800Z,1001.42
2018-07-16T04:46:08.759Z,1001.40
2018-07-16T04:47:08.737Z,1001.38
2018-07-16T04:48:08.710Z,1001.42
2018-07-16T04:49:08.687Z,1001.40
2018-07-16T04:50:08.666Z,1001.44
2018-07-16T04:51:08.645Z,1001.40
2018-07-16T04:52:08.611Z,1001.40
2018-07-16T04:53:08.588Z,1001.40
2018-07-16T04:54:08.563Z,1001.40
2018-07-16T04:55:08.534Z,1001.44
2018-07-16T04:56:08.517Z,1001.40
2018-07-16T04:57:08.501Z,1001.43
2018-07-16T04:58:08.458Z,1001.42
2018-07-16T04:59:08.430Z,1001.41
2018-07-16T05:00:08.417Z,1001.40
2018-07-16T05:01:08.383Z,1001.41
2018-07-16T05:02:08.360Z,1001.41
2018-07-16T05:03:08.353Z,1001.48
2018-07-16T05:04:08.311Z,1001.43
2018-07-16T05:05:08.287Z,1001.44
2018-07-16T05:06:08.416Z,1001.42
2018-07-16T05:07:08.257Z,1001.41
2018-07-16T05:08:08.206Z,1001.38
2018-07-16T05:09:08.194Z,1001.39
2018-07-16T05:10:08.153Z,1001.38
2018-07-16T05:11:08.128Z,1001.39
2018-07-16T05:12:08.107Z,1001.35
2018-07-16T05:13:08.091Z,1001.33
2018-07-16T05:14:08.060Z,1001.32
2018-07-16T05:15:08.031Z,1001.32
2018-07-16T05:16:08.009Z,1001.34
2018-07-16T05:17:07.978Z,1001.33
2018-07-16T05:18:07.985Z,1001.29
2018-07-16T05:19:07.933Z,1001.32
2018-07-16T05:20:07.905Z,1001.29
2018-07-16T05:21:07.887Z,1001.33
2018-07-16T05:22:07.855Z,1001.31
2018-07-16T05:23:08.302Z,1001.27
2018-07-16T05:24:07.898Z,1001.28
2018-07-16T05:25:07.789Z,1001.27
2018-07-16T05:26:07.761Z,1001.24
2018-07-16T05:27:07.734Z,1001.26
2018-07-16T05:28:07.715Z,1001.26
2018-07-16T05:29:07.678Z,1001.25
2018-07-16T05:30:07.662Z,1001.30
2018-07-16T05:31:07.633Z,1001.34
2018-07-16T05:32:07.648Z,1001.30
2018-07-16T05:33:07.589Z,1001.26
2018-07-16T05:34:07.554Z,1001.29
2018-07-16T05:35:07.530Z,1001.24
2018-07-16T05:36:07.527Z,1001.24
2018-07-16T05:37:07.520Z,1001.28
2018-07-16T05:38:07.475Z,1001.26
2018-07-16T05:39:07.433Z,1001.24
2018-07-16T05:40:07.409Z,1001.29
2018-07-16T05:41:07.377Z,1001.26
2018-07-16T05:42:07.354Z,1001.25
2018-07-16T05:43:07.331Z,1001.22
2018-07-16T05:44:07.307Z,1001.23
2018-07-16T05:45:07.291Z,1001.19
2018-07-16T05:46:07.256Z,1001.23
2018-07-16T05:47:07.234Z,1001.20
2018-07-16T05:48:07.205Z,1001.22
2018-07-16T05:49:07.180Z,1001.18
2018-07-16T05:50:07.161Z,1001.17
2018-07-16T05:51:07.132Z,1001.19
2018-07-16T05:52:07.104Z,1001.15
2018-07-16T05:53:07.088Z,1001.19
2018-07-16T05:54:07.052Z,1001.17
2018-07-16T05:55:07.030Z,1001.20
2018-07-16T05:56:07.010Z,1001.16
2018-07-16T05:57:06.988Z,1001.19
2018-07-16T05:58:07.021Z,1001.18
2018-07-16T05:59:06.931Z,1001.10
2018-07-16T06:00:06.912Z,1001.16
2018-07-16T06:01:06.881Z,1001.14
2018-07-16T06:02:06.860Z,1001.16
2018-07-16T06:03:06.840Z,1001.11
2018-07-16T06:04:06.813Z,1001.13
2018-07-16T06:05:06.788Z,1001.09
2018-07-16T06:06:06.774Z,1001.16
2018-07-16T06:07:06.736Z,1001.14
2018-07-16T06:08:06.707Z,1001.15
2018-07-16T06:09:06.681Z,1001.16
2018-07-16T06:10:06.664Z,1001.12
2018-07-16T06:11:06.630Z,1001.09
2018-07-16T06:12:06.629Z,1001.11
2018-07-16T06:13:06.585Z,1001.10
2018-07-16T06:14:06.558Z,1001.12
2018-07-16T06:15:06.531Z,1001.14
2018-07-16T06:16:06.517Z,1001.13
2018-07-16T06:17:06.490Z,1001.13
2018-07-16T06:18:06.461Z,1001.14
2018-07-16T06:19:06.439Z,1001.10
2018-07-16T06:20:06.414Z,1001.12
2018-07-16T06:21:06.387Z,1001.15
2018-07-16T06:22:06.358Z,1001.12
2018-07-16T06:23:06.338Z,1001.13
2018-07-16T06:24:06.377Z,1001.08
2018-07-16T06:25:06.286Z,1001.10
2018-07-16T06:26:06.263Z,1001.10
2018-07-16T06:27:06.234Z,1001.09
2018-07-16T06:28:06.215Z,1001.09
2018-07-16T06:29:06.189Z,1001.11
2018-07-16T06:30:06.170Z,1001.08
2018-07-16T06:31:06.141Z,1001.08
2018-07-16T06:32:06.110Z,1001.09
2018-07-16T06:33:06.091Z,1001.09
2018-07-16T06:34:06.062Z,1001.09
2018-07-16T06:35:06.034Z,1001.12
2018-07-16T06:36:06.018Z,1001.13
2018-07-16T06:37:05.996Z,1001.11
2018-07-16T06:38:05.973Z,1001.13
2018-07-16T06:39:05.946Z,1001.15
2018-07-16T06:40:05.939Z,1001.12
2018-07-16T06:41:06.191Z,1001.10
2018-07-16T06:42:05.863Z,1001.15
2018-07-16T06:43:05.858Z,1001.16
2018-07-16T06:44:05.820Z,1001.15
2018-07-16T06:45:05.794Z,1001.13
2018-07-16T06:46:05.765Z,1001.11
2018-07-16T06:47:05.737Z,1001.15
2018-07-16T06:48:05.758Z,1001.17
2018-07-16T06:49:05.695Z,1001.17
2018-07-16T06:50:05.672Z,1001.16
2018-07-16T06:51:05.649Z,1001.18
2018-07-16T06:52:05.614Z,1001.18
2018-07-16T06:53:05.596Z,1001.18
2018-07-16T06:54:05.575Z,1001.18
2018-07-16T06:55:05.545Z,1001.19
2018-07-16T06:56:05.524Z,1001.21
2018-07-16T06:57:05.556Z,1001.19
2018-07-16T06:58:05.471Z,1001.20
2018-07-16T06:59:05.446Z,1001.20
2018-07-16T07:00:05.430Z,1001.21
2018-07-16T07:01:05.397Z,1001.18
2018-07-16T07:02:05.386Z,1001.22
2018-07-16T07:03:05.352Z,1001.18
2018-07-16T07:04:05.323Z,1001.17
2018-07-16T07:05:05.307Z,1001.15
2018-07-16T07:06:05.270Z,1001.17
2018-07-16T07:07:05.248Z,1001.15
2018-07-16T07:08:05.225Z,1001.16
2018-07-16T07:09:05.200Z,1001.09
2018-07-16T07:10:05.228Z,1001.11
2018-07-16T07:11:05.153Z,1001.09
2018-07-16T07:12:05.133Z,1001.07
2018-07-16T07:13:05.106Z,1001.03
2018-07-16T07:14:05.081Z,1001.06
2018-07-16T07:15:05.052Z,1001.06
2018-07-16T07:16:05.034Z,1001.06
2018-07-16T07:17:05.008Z,1001.03
2018-07-16T07:18:05.048Z,1001.02
2018-07-16T07:19:04.958Z,1001.06
2018-07-16T07:20:04.941Z,1001.05
2018-07-16T07:21:04.912Z,1001.06
2018-07-16T07:22:04.884Z,1001.05
2018-07-16T07:23:04.857Z,1001.08
2018-07-16T07:24:04.839Z,1001.04
2018-07-16T07:25:04.811Z,1001.07
2018-07-16T07:26:04.797Z,1001.07
2018-07-16T07:27:04.764Z,1001.03
2018-07-16T07:28:04.737Z,1001.03
2018-07-16T07:29:04.719Z,1001.03
2018-07-16T07:30:04.684Z,1001.02
2018-07-16T07:31:04.663Z,1001.04
2018-07-16T07:32:04.691Z,1001.02
2018-07-16T07:33:04.616Z,1001.02
2018-07-16T07:34:04.592Z,1001.01
2018-07-16T07:35:04.611Z,1001.03
2018-07-16T07:36:04.603Z,1001.03
2018-07-16T07:37:04.523Z,1001.00
2018-07-16T07:38:04.494Z,1000.94
2018-07-16T07:39:04.469Z,1000.96
2018-07-16T07:40:04.450Z,1000.98
2018-07-16T07:41:04.427Z,1000.98
2018-07-16T07:42:04.398Z,1000.96
2018-07-16T07:43:04.371Z,1001.02
2018-07-16T07:44:04.351Z,1000.96
2018-07-16T07:45:04.320Z,1000.93
2018-07-16T07:46:04.309Z,1000.94
2018-07-16T07:47:04.278Z,1000.96
2018-07-16T07:48:04.265Z,1000.94
2018-07-16T07:49:04.227Z,1000.92
2018-07-16T07:50:04.201Z,1000.95
2018-07-16T07:51:04.183Z,1000.94
2018-07-16T07:52:04.157Z,1000.94
2018-07-16T07:53:04.136Z,1000.93
2018-07-16T07:54:04.131Z,1000.95
2018-07-16T07:55:04.457Z,1000.91
2018-07-16T07:56:04.055Z,1000.92
2018-07-16T07:57:04.039Z,1000.92
2018-07-16T07:58:04.006Z,1000.91
2018-07-16T07:59:03.989Z,1000.92
2018-07-16T08:00:03.968Z,1000.89
2018-07-16T08:01:03.939Z,1000.90
2018-07-16T08:02:03.941Z,1000.89
2018-07-16T08:03:03.887Z,1000.89
2018-07-16T08:04:03.888Z,1000.88
2018-07-16T08:05:03.845Z,1000.89
2018-07-16T08:06:03.822Z,1000.86
2018-07-16T08:07:03.790Z,1000.88
2018-07-16T08:08:03.774Z,1000.86
2018-07-16T08:09:03.752Z,1000.80
2018-07-16T08:10:03.716Z,1000.85
2018-07-16T08:11:03.714Z,1000.85
2018-07-16T08:12:03.677Z,1000.85
2018-07-16T08:13:03.645Z,1000.82
2018-07-16T08:14:03.644Z,1000.79
2018-07-16T08:15:03.603Z,1000.78
2018-07-16T08:16:03.575Z,1000.80
2018-07-16T08:17:03.559Z,1000.80
2018-07-16T08:18:03.527Z,1000.79
2018-07-16T08:19:03.531Z,1000.79
2018-07-16T08:20:03.494Z,1000.79
2018-07-16T08:21:03.482Z,1000.75
2018-07-16T08:22:03.434Z,1000.77
2018-07-16T08:23:03.416Z,1000.75
2018-07-16T08:24:03.390Z,1000.77
2018-07-16T08:25:03.362Z,1000.78
2018-07-16T08:26:03.341Z,1000.77
2018-07-16T08:27:03.316Z,1000.74
2018-07-16T08:28:03.315Z,1000.77
2018-07-16T08:29:03.274Z,1000.75
2018-07-16T08:30:03.250Z,1000.74
2018-07-16T08:31:03.238Z,1000.75
2018-07-16T08:32:03.199Z,1000.75
2018-07-16T08:33:03.173Z,1000.74
2018-07-16T08:34:03.145Z,1000.74
2018-07-16T08:35:03.143Z,1000.73
2018-07-16T08:36:03.101Z,1000.79
2018-07-16T08:37:03.081Z,1000.78
2018-07-16T08:38:03.048Z,1000.78
2018-07-16T08:39:03.081Z,1000.79
2018-07-16T08:40:03.009Z,1000.81
2018-07-16T08:41:02.987Z,1000.83
2018-07-16T08:42:02.962Z,1000.80
2018-07-16T08:43:02.941Z,1000.74
2018-07-16T08:44:02.913Z,1000.76
2018-07-16T08:45:02.887Z,1000.80
2018-07-16T08:46:02.879Z,1000.80
2018-07-16T08:47:02.842Z,1000.78
2018-07-16T08:48:02.818Z,1000.74
2018-07-16T08:49:02.808Z,1000.77
2018-07-16T08:50:02.767Z,1000.75
2018-07-16T08:51:02.747Z,1000.74
2018-07-16T08:52:02.745Z,1000.76
2018-07-16T08:53:02.720Z,1000.75
2018-07-16T08:54:02.670Z,1000.77
2018-07-16T08:55:02.701Z,1000.80
2018-07-16T08:56:02.629Z,1000.78
2018-07-16T08:57:02.602Z,1000.80
2018-07-16T08:58:02.592Z,1000.80
2018-07-16T08:59:02.571Z,1000.80
2018-07-16T09:00:02.532Z,1000.81
2018-07-16T09:01:02.510Z,1000.82
2018-07-16T09:02:02.496Z,1000.85
2018-07-16T09:03:02.461Z,1000.81
2018-07-16T09:04:02.538Z,1000.82
2018-07-16T09:05:02.414Z,1000.82
2018-07-16T09:06:02.392Z,1000.79
2018-07-16T09:07:02.403Z,1000.84
2018-07-16T09:08:02.344Z,1000.83
2018-07-16T09:09:02.335Z,1000.82
2018-07-16T09:10:02.293Z,1000.83
2018-07-16T09:11:02.331Z,1000.81
2018-07-16T09:12:02.255Z,1000.83
2018-07-16T09:13:02.236Z,1000.83
2018-07-16T09:14:02.208Z,1000.83
2018-07-16T09:15:02.178Z,1000.85
2018-07-16T09:16:02.157Z,1000.89
2018-07-16T09:17:02.209Z,1000.88
2018-07-16T09:18:02.106Z,1000.81
2018-07-16T09:19:02.093Z,1000.83
2018-07-16T09:20:02.062Z,1000.84
2018-07-16T09:21:02.064Z,1000.86
2018-07-16T09:22:02.029Z,1000.82
2018-07-16T09:23:01.996Z,1000.79
2018-07-16T09:24:02.010Z,1000.78
2018-07-16T09:25:01.943Z,1000.79
2018-07-16T09:26:01.926Z,1000.79
2018-07-16T09:27:01.896Z,1000.77
2018-07-16T09:28:01.870Z,1000.78
2018-07-16T09:29:01.856Z,1000.77
2018-07-16T09:30:01.825Z,1000.77
2018-07-16T09:31:01.804Z,1000.76
2018-07-16T09:32:01.808Z,1000.80
2018-07-16T09:33:02.157Z,1000.75
2018-07-16T09:34:01.743Z,1000.72
2018-07-16T09:35:01.715Z,1000.77
2018-07-16T09:36:01.684Z,1000.79
2018-07-16T09:37:01.716Z,1000.77
2018-07-16T09:38:01.651Z,1000.77
2018-07-16T09:39:01.642Z,1000.75
2018-07-16T09:40:01.609Z,1000.76
2018-07-16T09:41:01.597Z,1000.76
2018-07-16T09:42:01.689Z,1000.72
2018-07-16T09:43:01.537Z,1000.76
2018-07-16T09:44:01.501Z,1000.72
2018-07-16T09:45:01.598Z,1000.73
2018-07-16T09:46:01.478Z,1000.72
2018-07-16T09:47:01.433Z,1000.71
2018-07-16T09:48:01.404Z,1000.70
2018-07-16T09:49:01.389Z,1000.77
2018-07-16T09:50:01.371Z,1000.70
2018-07-16T09:51:01.343Z,1000.67
2018-07-16T09:52:01.330Z,1000.67
2018-07-16T09:53:01.287Z,1000.70
2018-07-16T09:54:01.278Z,1000.68
2018-07-16T09:55:01.245Z,1000.70
2018-07-16T09:56:01.268Z,1000.61
2018-07-16T09:57:01.197Z,1000.62
2018-07-16T09:58:01.186Z,1000.62
2018-07-16T09:59:01.155Z,1000.60
2018-07-16T10:00:01.136Z,1000.66
2018-07-16T10:01:01.114Z,1000.64
2018-07-16T10:02:01.091Z,1000.62
2018-07-16T10:03:01.074Z,1000.62
2018-07-16T10:04:01.046Z,1000.62
2018-07-16T10:05:01.017Z,1000.66
2018-07-16T10:06:01.023Z,1000.66
2018-07-16T10:07:00.972Z,1000.64
2018-07-16T10:08:00.957Z,1000.63
2018-07-16T10:09:00.923Z,1000.62
2018-07-16T10:10:01.149Z,1000.59
2018-07-16T10:11:00.887Z,1000.60
2018-07-16T10:12:00.852Z,1000.60
2018-07-16T10:13:00.841Z,1000.63
2018-07-16T10:14:00.806Z,1000.61
2018-07-16T10:15:00.793Z,1000.63
2018-07-16T10:16:00.769Z,1000.58
2018-07-16T10:17:00.774Z,1000.59
2018-07-16T10:18:00.721Z,1000.59
2018-07-16T10:19:00.696Z,1000.57
2018-07-16T10:20:00.672Z,1000.58
2018-07-16T10:21:00.656Z,1000.55
2018-07-16T10:22:00.642Z,1000.54
2018-07-16T10:23:00.605Z,1000.56
2018-07-16T10:24:00.588Z,1000.57
2018-07-16T10:25:00.559Z,1000.55
2018-07-16T10:26:00.564Z,1000.56
2018-07-16T10:27:00.515Z,1000.58
2018-07-16T10:28:00.497Z,1000.57
2018-07-16T10:29:00.468Z,1000.55
2018-07-16T10:30:00.449Z,1000.57
2018-07-16T10:31:00.434Z,1000.56
2018-07-16T10:32:00.412Z,1000.58
2018-07-16T10:33:00.387Z,1000.55
2018-07-16T10:34:00.454Z,1000.52
2018-07-16T10:35:00.332Z,1000.51
2018-07-16T10:36:00.312Z,1000.51
2018-07-16T10:37:00.289Z,1000.49
2018-07-16T10:38:00.267Z,1000.46
2018-07-16T10:39:00.244Z,1000.46
2018-07-16T10:40:00.221Z,1000.48
2018-07-16T10:41:00.227Z,1000.46
2018-07-16T10:42:00.174Z,1000.46
2018-07-16T10:43:00.167Z,1000.44
2018-07-16T10:44:00.130Z,1000.42
2018-07-16T10:45:00.115Z,1000.43
2018-07-16T10:46:00.095Z,1000.41
2018-07-16T10:47:00.061Z,1000.38
2018-07-16T10:48:00.039Z,1000.40
2018-07-16T10:49:00.029Z,1000.42
2018-07-16T10:49:59.992Z,1000.40
2018-07-16T10:50:59.984Z,1000.39
2018-07-16T10:51:59.996Z,1000.37
2018-07-16T10:52:59.951Z,1000.38
2018-07-16T10:53:59.915Z,1000.35
2018-07-16T10:54:59.915Z,1000.36
2018-07-16T10:55:59.861Z,1000.36
2018-07-16T10:56:59.838Z,1000.34
2018-07-16T10:57:59.823Z,1000.30
2018-07-16T10:58:59.813Z,1000.34
2018-07-16T10:59:59.770Z,1000.30
2018-07-16T11:00:59.819Z,1000.29
2018-07-16T11:01:59.768Z,1000.27
2018-07-16T11:02:59.728Z,1000.26
2018-07-16T11:03:59.682Z,1000.28
2018-07-16T11:04:59.657Z,1000.28
2018-07-16T11:05:59.643Z,1000.29
2018-07-16T11:06:59.617Z,1000.28
2018-07-16T11:07:59.591Z,1000.26
2018-07-16T11:08:59.571Z,1000.28
2018-07-16T11:09:59.549Z,1000.28
2018-07-16T11:10:59.519Z,1000.27
2018-07-16T11:11:59.500Z,1000.29
2018-07-16T11:12:59.480Z,1000.30
2018-07-16T11:13:59.455Z,1000.34
2018-07-16T11:14:59.503Z,1000.29
2018-07-16T11:15:59.413Z,1000.23
2018-07-16T11:16:59.395Z,1000.26
2018-07-16T11:17:59.368Z,1000.29
2018-07-16T11:18:59.346Z,1000.26
2018-07-16T11:19:59.325Z,1000.24
2018-07-16T11:20:59.317Z,1000.26
2018-07-16T11:21:59.274Z,1000.29
2018-07-16T11:22:59.258Z,1000.22
2018-07-16T11:23:59.236Z,1000.23
2018-07-16T11:24:59.208Z,1000.24
2018-07-16T11:25:59.207Z,1000.19
2018-07-16T11:26:59.173Z,1000.18
2018-07-16T11:27:59.140Z,1000.19
2018-07-16T11:28:59.123Z,1000.18
2018-07-16T11:29:59.101Z,1000.19
2018-07-16T11:30:59.098Z,1000.16
2018-07-16T11:31:59.056Z,1000.16
2018-07-16T11:32:59.028Z,1000.15
2018-07-16T11:33:59.006Z,1000.16
2018-07-16T11:34:58.988Z,1000.13
2018-07-16T11:35:58.970Z,1000.12
2018-07-16T11:36:58.946Z,1000.10
2018-07-16T11:37:58.921Z,1000.12
2018-07-16T11:38:58.899Z,1000.14
2018-07-16T11:39:58.874Z,1000.13
2018-07-16T11:40:58.855Z,1000.12
2018-07-16T11:41:58.828Z,1000.12
2018-07-16T11:42:58.807Z,1000.12
2018-07-16T11:43:58.796Z,1000.13
2018-07-16T11:44:58.765Z,1000.11
2018-07-16T11:45:58.788Z,1000.08
2018-07-16T11:46:58.725Z,1000.14
2018-07-16T11:47:58.699Z,1000.10
2018-07-16T11:48:58.685Z,1000.12
2018-07-16T11:49:58.658Z,1000.10
2018-07-16T11:50:58.630Z,1000.09
2018-07-16T11:51:58.609Z,1000.07
2018-07-16T11:52:58.609Z,1000.05
2018-07-16T11:53:58.564Z,1000.08
2018-07-16T11:54:58.541Z,1000.05
2018-07-16T11:55:58.521Z,1000.04
2018-07-16T11:56:58.502Z,1000.02
2018-07-16T11:57:58.488Z,999.99
2018-07-16T11:58:58.548Z,1000.03
2018-07-16T11:59:58.438Z,999.98
2018-07-16T12:00:58.407Z,999.96
2018-07-16T12:01:58.465Z,999.99
2018-07-16T12:02:58.366Z,999.98
2018-07-16T12:03:58.341Z,1000.00
2018-07-16T12:04:58.318Z,1000.01